createdAt,value
2019-03-11T00:00:22.493Z,99014.55
2019-03-11T00:00:57.524Z,99040.27
2019-03-11T00:01:30.590Z,99033.77
2019-03-11T00:02:01.824Z,99034.65
2019-03-11T00:02:33.067Z,99034.65
2019-03-11T00:03:04.271Z,99027.22
2019-03-11T00:03:35.430Z,99042.41
2019-03-11T00:04:07.521Z,99032.43
2019-03-11T00:04:39.482Z,99025.33
2019-03-11T00:05:10.749Z,99025.33
2019-03-11T00:05:42.011Z,99024.00
2019-03-11T00:06:13.229Z,99024.00
2019-03-11T00:06:44.455Z,99046.27
2019-03-11T00:07:15.734Z,99038.42
2019-03-11T00:07:46.991Z,99038.42
2019-03-11T00:08:18.173Z,99046.23
2019-03-11T00:08:49.378Z,99046.66
2019-03-11T00:09:20.538Z,99048.83
2019-03-11T00:09:51.751Z,99047.95
2019-03-11T00:10:22.907Z,99047.95
2019-03-11T00:10:54.138Z,99037.42
2019-03-11T00:11:25.292Z,99040.43
2019-03-11T00:11:56.491Z,99053.44
2019-03-11T00:12:27.652Z,99053.44
2019-03-11T00:12:58.855Z,99049.95
2019-03-11T00:13:30.012Z,99066.16
2019-03-11T00:14:01.222Z,99066.16
2019-03-11T00:14:32.376Z,99048.61
2019-03-11T00:15:06.812Z,99048.61
2019-03-11T00:15:38.049Z,99066.12
2019-03-11T00:16:09.248Z,99059.43
2019-03-11T00:16:40.424Z,99069.55
2019-03-11T00:17:11.630Z,99069.55
2019-03-11T00:17:42.795Z,99058.55
2019-03-11T00:18:14.003Z,99065.93
2019-03-11T00:18:45.174Z,99065.93
2019-03-11T00:19:16.445Z,99084.27
2019-03-11T00:19:47.614Z,99084.27
2019-03-11T00:20:18.788Z,99081.67
2019-03-11T00:20:49.972Z,99083.77
2019-03-11T00:21:21.158Z,99068.91
2019-03-11T00:21:52.378Z,99068.91
2019-03-11T00:22:23.620Z,99094.22
2019-03-11T00:22:54.793Z,99059.21
2019-03-11T00:23:25.984Z,99088.13
2019-03-11T00:23:57.159Z,99088.13
2019-03-11T00:24:28.324Z,99097.65
2019-03-11T00:24:59.513Z,99098.03
2019-03-11T00:25:30.747Z,99098.03
2019-03-11T00:26:01.941Z,99102.34
2019-03-11T00:26:33.107Z,99094.91
2019-03-11T00:27:04.292Z,99102.77
2019-03-11T00:27:35.477Z,99107.55
2019-03-11T00:28:06.723Z,99107.55
2019-03-11T00:28:37.955Z,99105.83
2019-03-11T00:29:09.471Z,99109.35
2019-03-11T00:29:40.651Z,99095.75
2019-03-11T00:30:12.349Z,99095.75
2019-03-11T00:30:43.523Z,99110.66
2019-03-11T00:31:15.699Z,99115.02
2019-03-11T00:31:46.885Z,99116.78
2019-03-11T00:32:18.074Z,99116.78
2019-03-11T00:32:49.302Z,99117.63
2019-03-11T00:33:20.499Z,99117.20
2019-03-11T00:33:51.690Z,99112.38
2019-03-11T00:34:22.968Z,99126.31
2019-03-11T00:34:54.177Z,99126.31
2019-03-11T00:35:25.364Z,99108.38
2019-03-11T00:35:56.558Z,99108.38
2019-03-11T00:36:27.724Z,99113.67
2019-03-11T00:36:59.059Z,99113.67
2019-03-11T00:37:30.215Z,99128.12
2019-03-11T00:38:01.448Z,99132.91
2019-03-11T00:38:32.601Z,99132.91
2019-03-11T00:39:05.108Z,99129.38
2019-03-11T00:39:38.026Z,99139.41
2019-03-11T00:40:15.687Z,99144.61
2019-03-11T00:40:46.854Z,99138.95
2019-03-11T00:41:18.099Z,99138.95
2019-03-11T00:41:49.278Z,99146.75
2019-03-11T00:42:20.590Z,99148.05
2019-03-11T00:42:51.750Z,99140.24
2019-03-11T00:43:22.948Z,99132.77
2019-03-11T00:43:54.114Z,99132.77
2019-03-11T00:44:25.332Z,99151.98
2019-03-11T00:44:56.490Z,99145.91
2019-03-11T00:45:27.681Z,99144.61
2019-03-11T00:45:58.826Z,99144.61
2019-03-11T00:46:29.993Z,99141.16
2019-03-11T00:47:01.171Z,99141.16
2019-03-11T00:47:32.334Z,99146.38
2019-03-11T00:48:03.495Z,99150.28
2019-03-11T00:48:34.663Z,99147.26
2019-03-11T00:49:06.045Z,99148.52
2019-03-11T00:49:37.190Z,99152.88
2019-03-11T00:50:09.756Z,99150.70
2019-03-11T00:50:40.895Z,99156.78
2019-03-11T00:51:12.047Z,99134.02
2019-03-11T00:51:43.222Z,99166.77
2019-03-11T00:52:14.387Z,99159.38
2019-03-11T00:52:45.636Z,99168.91
2019-03-11T00:53:16.921Z,99165.41
2019-03-11T00:53:48.081Z,99165.84
2019-03-11T00:54:19.247Z,99165.84
2019-03-11T00:54:50.445Z,99164.95
2019-03-11T00:55:21.616Z,99164.95
2019-03-11T00:55:52.776Z,99169.70
2019-03-11T00:56:23.985Z,99156.49
2019-03-11T00:56:55.131Z,99156.49
2019-03-11T00:57:26.339Z,99173.59
2019-03-11T00:57:57.516Z,99176.66
2019-03-11T00:58:28.707Z,99176.66
2019-03-11T00:58:59.883Z,99174.90
2019-03-11T00:59:31.096Z,99181.86
2019-03-11T01:00:08.501Z,99170.89
2019-03-11T01:00:39.826Z,99170.89
2019-03-11T01:01:11.112Z,99186.23
2019-03-11T01:01:43.310Z,99168.66
2019-03-11T01:02:14.497Z,99166.89
2019-03-11T01:02:45.692Z,99190.50
2019-03-11T01:03:16.879Z,99190.50
2019-03-11T01:03:48.054Z,99166.66
2019-03-11T01:04:19.232Z,99193.05
2019-03-11T01:04:50.528Z,99182.45
2019-03-11T01:05:21.722Z,99193.05
2019-03-11T01:05:52.884Z,99185.23
2019-03-11T01:06:24.086Z,99197.36
2019-03-11T01:06:55.249Z,99206.84
2019-03-11T01:07:27.455Z,99206.84
2019-03-11T01:07:58.614Z,99202.98
2019-03-11T01:08:29.832Z,99194.30
2019-03-11T01:09:01.073Z,99197.78
2019-03-11T01:09:32.326Z,99195.59
2019-03-11T01:10:06.986Z,99196.06
2019-03-11T01:10:38.288Z,99204.70
2019-03-11T01:11:09.539Z,99205.59
2019-03-11T01:11:40.726Z,99205.59
2019-03-11T01:12:11.927Z,99209.44
2019-03-11T01:12:43.099Z,99209.44
2019-03-11T01:13:14.300Z,99205.86
2019-03-11T01:13:45.477Z,99212.88
2019-03-11T01:14:16.651Z,99207.20
2019-03-11T01:14:47.805Z,99213.30
2019-03-11T01:15:18.992Z,99216.34
2019-03-11T01:15:50.280Z,99213.28
2019-03-11T01:16:21.423Z,99215.89
2019-03-11T01:16:52.621Z,99216.72
2019-03-11T01:17:23.806Z,99213.66
2019-03-11T01:17:55.013Z,99218.03
2019-03-11T01:18:26.177Z,99224.47
2019-03-11T01:18:57.379Z,99221.78
2019-03-11T01:19:28.546Z,99221.78
2019-03-11T01:19:59.739Z,99224.84
2019-03-11T01:20:30.917Z,99229.98
2019-03-11T01:21:02.102Z,99229.98
2019-03-11T01:21:33.297Z,99225.16
2019-03-11T01:22:04.483Z,99234.27
2019-03-11T01:22:35.980Z,99228.64
2019-03-11T01:23:07.157Z,99231.66
2019-03-11T01:23:38.348Z,99236.86
2019-03-11T01:24:09.556Z,99230.35
2019-03-11T01:24:40.745Z,99227.75
2019-03-11T01:25:12.551Z,99217.66
2019-03-11T01:25:43.732Z,99206.64
2019-03-11T01:26:14.916Z,99231.14
2019-03-11T01:26:47.114Z,99233.74
2019-03-11T01:27:18.287Z,99232.68
2019-03-11T01:27:49.478Z,99220.94
2019-03-11T01:28:21.660Z,99220.94
2019-03-11T01:28:52.828Z,99242.78
2019-03-11T01:29:23.995Z,99226.97
2019-03-11T01:29:55.184Z,99246.63
2019-03-11T01:30:26.410Z,99243.19
2019-03-11T01:30:57.600Z,99250.98
2019-03-11T01:31:28.819Z,99248.30
2019-03-11T01:31:59.986Z,99248.30
2019-03-11T01:32:31.201Z,99252.61
2019-03-11T01:33:02.362Z,99252.13
2019-03-11T01:33:33.628Z,99259.88
2019-03-11T01:34:04.837Z,99238.44
2019-03-11T01:34:36.066Z,99238.44
2019-03-11T01:35:08.342Z,99251.14
2019-03-11T01:35:40.791Z,99251.14
2019-03-11T01:36:11.950Z,99264.97
2019-03-11T01:36:43.176Z,99264.97
2019-03-11T01:37:14.319Z,99239.17
2019-03-11T01:37:45.538Z,99261.48
2019-03-11T01:38:17.787Z,99261.48
2019-03-11T01:38:48.983Z,99259.72
2019-03-11T01:39:20.164Z,99264.45
2019-03-11T01:39:51.355Z,99265.31
2019-03-11T01:40:22.533Z,99270.09
2019-03-11T01:40:53.707Z,99249.88
2019-03-11T01:41:24.856Z,99263.55
2019-03-11T01:41:56.089Z,99268.70
2019-03-11T01:42:27.239Z,99274.31
2019-03-11T01:42:58.454Z,99269.59
2019-03-11T01:43:29.605Z,99277.84
2019-03-11T01:44:00.815Z,99277.38
2019-03-11T01:44:32.006Z,99277.38
2019-03-11T01:45:08.911Z,99276.08
2019-03-11T01:45:40.061Z,99285.13
2019-03-11T01:46:11.287Z,99281.98
2019-03-11T01:46:42.450Z,99285.88
2019-03-11T01:47:13.776Z,99284.48
2019-03-11T01:47:44.948Z,99284.48
2019-03-11T01:48:16.181Z,99288.38
2019-03-11T01:48:47.330Z,99274.27
2019-03-11T01:49:18.534Z,99288.78
2019-03-11T01:49:50.074Z,99293.52
2019-03-11T01:50:21.281Z,99294.40
2019-03-11T01:50:52.452Z,99296.12
2019-03-11T01:51:23.712Z,99290.39
2019-03-11T01:51:54.983Z,99300.43
2019-03-11T01:52:27.218Z,99308.64
2019-03-11T01:52:58.458Z,99308.64
2019-03-11T01:53:29.696Z,99301.71
2019-03-11T01:54:00.922Z,99314.23
2019-03-11T01:54:32.175Z,99296.22
2019-03-11T01:55:06.512Z,99296.22
2019-03-11T01:55:37.754Z,99299.18
2019-03-11T01:56:08.986Z,99313.70
2019-03-11T01:56:40.139Z,99313.70
2019-03-11T01:57:11.354Z,99318.44
2019-03-11T01:57:42.511Z,99318.44
2019-03-11T01:58:13.733Z,99314.48
2019-03-11T01:58:44.934Z,99300.41
2019-03-11T01:59:16.136Z,99312.70
2019-03-11T01:59:47.301Z,99312.70
2019-03-11T02:00:18.518Z,99311.80
2019-03-11T02:00:49.687Z,99314.81
2019-03-11T02:01:20.886Z,99314.81
2019-03-11T02:01:52.049Z,99321.73
2019-03-11T02:02:23.256Z,99317.30
2019-03-11T02:02:54.413Z,99321.27
2019-03-11T02:03:25.657Z,99332.02
2019-03-11T02:03:56.811Z,99332.02
2019-03-11T02:04:28.027Z,99332.02
2019-03-11T02:04:59.233Z,99331.59
2019-03-11T02:05:30.423Z,99321.19
2019-03-11T02:06:01.631Z,99329.87
2019-03-11T02:06:32.816Z,99329.87
2019-03-11T02:07:05.143Z,99334.18
2019-03-11T02:07:36.301Z,99338.50
2019-03-11T02:08:08.911Z,99317.00
2019-03-11T02:08:40.087Z,99340.20
2019-03-11T02:09:11.304Z,99340.67
2019-03-11T02:09:42.656Z,99340.67
2019-03-11T02:10:15.698Z,99328.67
2019-03-11T02:10:46.860Z,99353.95
2019-03-11T02:11:18.074Z,99353.95
2019-03-11T02:11:49.235Z,99350.06
2019-03-11T02:12:20.439Z,99350.06
2019-03-11T02:12:51.595Z,99348.77
2019-03-11T02:13:22.801Z,99348.77
2019-03-11T02:13:53.955Z,99351.36
2019-03-11T02:14:25.266Z,99334.16
2019-03-11T02:14:56.425Z,99350.06
2019-03-11T02:15:27.628Z,99360.45
2019-03-11T02:15:58.839Z,99363.05
2019-03-11T02:16:30.084Z,99356.55
2019-03-11T02:17:01.345Z,99355.20
2019-03-11T02:17:32.578Z,99358.73
2019-03-11T02:18:03.841Z,99351.72
2019-03-11T02:18:35.160Z,99362.58
2019-03-11T02:19:06.672Z,99346.75
2019-03-11T02:19:37.940Z,99358.69
2019-03-11T02:20:16.909Z,99371.72
2019-03-11T02:20:48.152Z,99369.13
2019-03-11T02:21:19.390Z,99376.03
2019-03-11T02:21:50.650Z,99376.03
2019-03-11T02:22:21.942Z,99353.70
2019-03-11T02:22:53.105Z,99367.41
2019-03-11T02:23:24.294Z,99380.83
2019-03-11T02:23:55.454Z,99375.64
2019-03-11T02:24:26.638Z,99374.79
2019-03-11T02:24:57.809Z,99378.23
2019-03-11T02:25:29.037Z,99381.70
2019-03-11T02:26:00.181Z,99381.70
2019-03-11T02:26:32.484Z,99384.66
2019-03-11T02:27:03.663Z,99381.16
2019-03-11T02:27:34.924Z,99381.16
2019-03-11T02:28:06.157Z,99364.56
2019-03-11T02:28:37.380Z,99378.14
2019-03-11T02:29:08.546Z,99379.00
2019-03-11T02:29:39.745Z,99379.00
2019-03-11T02:30:15.578Z,99391.16
2019-03-11T02:30:46.781Z,99391.16
2019-03-11T02:31:18.017Z,99395.52
2019-03-11T02:31:49.272Z,99390.69
2019-03-11T02:32:20.502Z,99390.69
2019-03-11T02:32:51.728Z,99386.84
2019-03-11T02:33:22.962Z,99392.45
2019-03-11T02:33:54.381Z,99395.05
2019-03-11T02:34:25.629Z,99394.56
2019-03-11T02:34:56.858Z,99394.56
2019-03-11T02:35:31.114Z,99398.04
2019-03-11T02:36:02.343Z,99401.05
2019-03-11T02:36:33.556Z,99401.05
2019-03-11T02:37:04.712Z,99399.28
2019-03-11T02:37:35.921Z,99399.28
2019-03-11T02:38:07.074Z,99394.43
2019-03-11T02:38:38.261Z,99406.20
2019-03-11T02:39:09.627Z,99409.26
2019-03-11T02:39:40.768Z,99413.16
2019-03-11T02:40:14.958Z,99413.63
2019-03-11T02:40:46.294Z,99417.52
2019-03-11T02:41:17.515Z,99414.45
2019-03-11T02:41:48.707Z,99413.52
2019-03-11T02:42:19.912Z,99421.29
2019-03-11T02:42:51.170Z,99421.29
2019-03-11T02:43:22.370Z,99418.28
2019-03-11T02:43:53.549Z,99417.75
2019-03-11T02:44:24.723Z,99419.47
2019-03-11T02:44:55.919Z,99416.44
2019-03-11T02:45:27.217Z,99407.97
2019-03-11T02:45:58.500Z,99416.38
2019-03-11T02:46:29.702Z,99420.27
2019-03-11T02:47:00.869Z,99424.17
2019-03-11T02:47:32.094Z,99419.86
2019-03-11T02:48:03.249Z,99421.98
2019-03-11T02:48:34.457Z,99421.98
2019-03-11T02:49:05.623Z,99430.20
2019-03-11T02:49:36.929Z,99426.30
2019-03-11T02:50:09.469Z,99430.95
2019-03-11T02:50:40.673Z,99429.29
2019-03-11T02:51:11.826Z,99431.47
2019-03-11T02:51:43.051Z,99424.53
2019-03-11T02:52:14.195Z,99428.01
2019-03-11T02:52:45.384Z,99427.58
2019-03-11T02:53:16.549Z,99434.50
2019-03-11T02:53:47.767Z,99447.05
2019-03-11T02:54:18.924Z,99447.05
2019-03-11T02:54:50.130Z,99434.50
2019-03-11T02:55:21.301Z,99443.57
2019-03-11T02:55:52.535Z,99434.02
2019-03-11T02:56:23.707Z,99425.07
2019-03-11T02:56:54.915Z,99425.07
2019-03-11T02:57:26.066Z,99437.44
2019-03-11T02:57:57.279Z,99443.93
2019-03-11T02:58:28.444Z,99446.53
2019-03-11T02:58:59.783Z,99448.23
2019-03-11T02:59:32.433Z,99445.64
2019-03-11T03:00:17.926Z,99448.62
2019-03-11T03:00:50.973Z,99451.17
2019-03-11T03:01:31.031Z,99445.51
2019-03-11T03:02:07.029Z,99448.97
2019-03-11T03:02:46.847Z,99451.11
2019-03-11T03:03:29.036Z,99448.08
2019-03-11T03:04:02.169Z,99446.78
2019-03-11T03:04:35.247Z,99448.08
2019-03-11T03:05:12.464Z,99449.38
2019-03-11T03:05:45.625Z,99449.73
2019-03-11T03:06:17.159Z,99444.94
2019-03-11T03:06:49.384Z,99447.95
2019-03-11T03:07:20.637Z,99432.09
2019-03-11T03:07:51.872Z,99454.46
2019-03-11T03:08:23.061Z,99453.16
2019-03-11T03:08:54.257Z,99443.64
2019-03-11T03:09:25.516Z,99432.52
2019-03-11T03:09:56.730Z,99432.52
2019-03-11T03:10:27.954Z,99447.06
2019-03-11T03:10:59.115Z,99454.46
2019-03-11T03:11:30.340Z,99454.46
2019-03-11T03:12:01.522Z,99447.95
2019-03-11T03:12:32.824Z,99458.75
2019-03-11T03:13:03.986Z,99451.73
2019-03-11T03:13:35.178Z,99451.73
2019-03-11T03:14:06.438Z,99444.74
2019-03-11T03:14:37.670Z,99449.11
2019-03-11T03:15:09.028Z,99448.64
2019-03-11T03:15:40.235Z,99451.16
2019-03-11T03:16:11.396Z,99457.64
2019-03-11T03:16:42.595Z,99457.64
2019-03-11T03:17:13.772Z,99451.09
2019-03-11T03:17:44.986Z,99456.29
2019-03-11T03:18:16.155Z,99454.52
2019-03-11T03:18:47.344Z,99454.52
2019-03-11T03:19:18.504Z,99457.53
2019-03-11T03:19:49.719Z,99456.67
2019-03-11T03:20:20.865Z,99456.67
2019-03-11T03:20:52.072Z,99447.06
2019-03-11T03:21:23.217Z,99461.89
2019-03-11T03:21:54.422Z,99460.13
2019-03-11T03:22:25.585Z,99464.08
2019-03-11T03:22:56.793Z,99460.57
2019-03-11T03:23:27.940Z,99457.53
2019-03-11T03:23:59.147Z,99461.02
2019-03-11T03:24:30.311Z,99467.56
2019-03-11T03:25:01.517Z,99466.27
2019-03-11T03:25:34.727Z,99464.48
2019-03-11T03:26:05.918Z,99467.09
2019-03-11T03:26:37.059Z,99463.19
2019-03-11T03:27:08.284Z,99462.70
2019-03-11T03:27:39.562Z,99466.18
2019-03-11T03:28:11.010Z,99468.78
2019-03-11T03:28:42.239Z,99457.51
2019-03-11T03:29:13.487Z,99469.19
2019-03-11T03:29:44.745Z,99469.19
2019-03-11T03:30:19.191Z,99470.90
2019-03-11T03:30:50.595Z,99469.60
2019-03-11T03:31:21.910Z,99469.05
2019-03-11T03:31:53.222Z,99472.55
2019-03-11T03:32:24.506Z,99472.55
2019-03-11T03:32:55.713Z,99473.85
2019-03-11T03:33:26.891Z,99473.85
2019-03-11T03:33:58.081Z,99479.04
2019-03-11T03:34:29.330Z,99471.25
2019-03-11T03:35:00.852Z,99475.15
2019-03-11T03:35:32.202Z,99475.15
2019-03-11T03:36:03.413Z,99479.04
2019-03-11T03:36:34.653Z,99465.23
2019-03-11T03:37:05.904Z,99471.78
2019-03-11T03:37:37.048Z,99471.78
2019-03-11T03:38:08.278Z,99464.95
2019-03-11T03:38:39.438Z,99477.45
2019-03-11T03:39:10.622Z,99479.16
2019-03-11T03:39:41.799Z,99480.06
2019-03-11T03:40:14.568Z,99483.49
2019-03-11T03:40:45.720Z,99489.16
2019-03-11T03:41:16.911Z,99478.30
2019-03-11T03:41:48.052Z,99483.47
2019-03-11T03:42:19.216Z,99486.19
2019-03-11T03:42:50.509Z,99477.93
2019-03-11T03:43:22.032Z,99477.93
2019-03-11T03:43:53.253Z,99496.86
2019-03-11T03:44:24.427Z,99509.36
2019-03-11T03:45:28.252Z,99509.36
2019-03-11T03:45:59.422Z,99514.53
2019-03-11T03:46:30.598Z,99521.78
2019-03-11T03:47:01.759Z,99511.34
2019-03-11T03:47:33.921Z,99515.16
2019-03-11T03:48:05.115Z,99515.16
2019-03-11T03:48:36.425Z,99523.73
2019-03-11T03:49:07.671Z,99521.41
2019-03-11T03:49:38.849Z,99516.95
2019-03-11T03:50:10.006Z,99522.63
2019-03-11T03:50:41.172Z,99526.45
2019-03-11T03:51:12.334Z,99530.75
2019-03-11T03:51:43.507Z,99528.96
2019-03-11T03:52:14.661Z,99528.14
2019-03-11T03:52:45.840Z,99525.06
2019-03-11T03:53:17.016Z,99521.65
2019-03-11T03:53:48.185Z,99525.09
2019-03-11T03:54:19.394Z,99529.84
2019-03-11T03:54:50.549Z,99534.56
2019-03-11T03:55:21.746Z,99534.56
2019-03-11T03:55:52.911Z,99537.98
2019-03-11T03:56:24.112Z,99525.80
2019-03-11T03:56:55.278Z,99525.80
2019-03-11T03:57:26.465Z,99524.53
2019-03-11T03:57:57.613Z,99525.33
2019-03-11T03:58:28.883Z,99523.97
2019-03-11T03:59:00.115Z,99523.97
2019-03-11T03:59:31.252Z,99524.83
2019-03-11T04:00:04.868Z,99533.85
2019-03-11T04:00:36.372Z,99527.84
2019-03-11T04:01:07.550Z,99506.70
2019-03-11T04:01:38.909Z,99506.70
2019-03-11T04:02:10.059Z,99535.88
2019-03-11T04:02:41.224Z,99541.01
2019-03-11T04:03:12.420Z,99529.31
2019-03-11T04:03:43.569Z,99533.61
2019-03-11T04:04:14.715Z,99528.36
2019-03-11T04:04:45.886Z,99532.25
2019-03-11T04:05:17.092Z,99539.62
2019-03-11T04:05:48.365Z,99532.25
2019-03-11T04:06:19.538Z,99541.74
2019-03-11T04:06:50.723Z,99547.34
2019-03-11T04:07:21.922Z,99529.59
2019-03-11T04:07:53.104Z,99533.87
2019-03-11T04:08:24.295Z,99543.83
2019-03-11T04:08:55.438Z,99541.65
2019-03-11T04:09:26.652Z,99536.87
2019-03-11T04:09:57.815Z,99533.78
2019-03-11T04:10:32.298Z,99539.81
2019-03-11T04:11:02.084Z,99539.31
2019-03-11T04:11:33.292Z,99539.31
2019-03-11T04:12:04.458Z,99534.60
2019-03-11T04:12:35.927Z,99547.03
2019-03-11T04:13:08.247Z,99547.03
2019-03-11T04:13:39.665Z,99544.41
2019-03-11T04:14:10.896Z,99564.20
2019-03-11T04:14:42.134Z,99545.62
2019-03-11T04:15:14.664Z,99549.03
2019-03-11T04:15:45.920Z,99539.00
2019-03-11T04:16:17.123Z,99543.72
2019-03-11T04:16:48.354Z,99548.88
2019-03-11T04:17:19.580Z,99551.41
2019-03-11T04:17:50.871Z,99552.67
2019-03-11T04:18:22.141Z,99545.71
2019-03-11T04:18:54.302Z,99544.00
2019-03-11T04:19:28.920Z,99556.97
2019-03-11T04:19:58.579Z,99556.97
2019-03-11T04:20:29.794Z,99550.90
2019-03-11T04:21:00.957Z,99553.02
2019-03-11T04:21:32.178Z,99562.16
2019-03-11T04:22:03.336Z,99556.02
2019-03-11T04:22:34.643Z,99552.55
2019-03-11T04:23:06.032Z,99535.81
2019-03-11T04:23:37.235Z,99561.20
2019-03-11T04:24:08.383Z,99553.43
2019-03-11T04:24:39.643Z,99556.84
2019-03-11T04:25:11.304Z,99561.62
2019-03-11T04:25:42.525Z,99559.84
2019-03-11T04:26:13.672Z,99556.40
2019-03-11T04:26:51.073Z,99558.11
2019-03-11T04:27:23.237Z,99564.18
2019-03-11T04:27:54.437Z,99559.84
2019-03-11T04:28:25.619Z,99577.56
2019-03-11T04:28:56.868Z,99585.33
2019-03-11T04:29:28.118Z,99574.89
2019-03-11T04:29:59.325Z,99560.57
2019-03-11T04:30:30.565Z,99570.53
2019-03-11T04:31:01.802Z,99567.91
2019-03-11T04:31:33.035Z,99568.34
2019-03-11T04:32:04.292Z,99571.39
2019-03-11T04:32:35.832Z,99571.80
2019-03-11T04:33:07.106Z,99567.91
2019-03-11T04:33:38.316Z,99581.28
2019-03-11T04:34:09.483Z,99573.13
2019-03-11T04:34:40.679Z,99585.17
2019-03-11T04:35:11.933Z,99587.77
2019-03-11T04:35:43.130Z,99583.88
2019-03-11T04:36:15.273Z,99578.69
2019-03-11T04:36:46.480Z,99582.99
2019-03-11T04:37:17.618Z,99585.58
2019-03-11T04:37:48.818Z,99582.11
2019-03-11T04:38:19.994Z,99577.80
2019-03-11T04:38:51.175Z,99581.69
2019-03-11T04:39:22.311Z,99582.58
2019-03-11T04:39:53.520Z,99589.95
2019-03-11T04:40:24.686Z,99584.80
2019-03-11T04:40:55.891Z,99589.98
2019-03-11T04:41:27.047Z,99593.87
2019-03-11T04:41:58.255Z,99590.36
2019-03-11T04:42:29.411Z,99584.28
2019-03-11T04:43:00.604Z,99589.06
2019-03-11T04:43:31.779Z,99595.95
2019-03-11T04:44:03.023Z,99601.55
2019-03-11T04:44:34.245Z,99593.70
2019-03-11T04:45:11.285Z,99588.97
2019-03-11T04:45:42.594Z,99596.74
2019-03-11T04:46:13.831Z,99601.92
2019-03-11T04:46:45.079Z,99597.81
2019-03-11T04:47:16.315Z,99606.57
2019-03-11T04:47:47.603Z,99596.61
2019-03-11T04:48:18.851Z,99597.44
2019-03-11T04:48:50.057Z,99606.09
2019-03-11T04:49:21.250Z,99603.91
2019-03-11T04:49:52.467Z,99599.58
2019-03-11T04:50:23.623Z,99596.98
2019-03-11T04:50:54.848Z,99601.70
2019-03-11T04:51:26.012Z,99609.47
2019-03-11T04:51:57.258Z,99609.47
2019-03-11T04:52:28.424Z,99614.66
2019-03-11T04:52:59.635Z,99602.17
2019-03-11T04:53:30.794Z,99605.17
2019-03-11T04:54:02.007Z,99624.20
2019-03-11T04:54:33.146Z,99616.36
2019-03-11T04:55:07.962Z,99612.89
2019-03-11T04:55:39.112Z,99612.89
2019-03-11T04:56:10.324Z,99637.03
2019-03-11T04:56:41.493Z,99621.48
2019-03-11T04:57:12.704Z,99624.86
2019-03-11T04:57:54.787Z,99612.37
2019-03-11T04:58:25.981Z,99621.38
2019-03-11T04:59:07.935Z,99629.57
2019-03-11T04:59:39.453Z,99620.02
2019-03-11T05:00:19.373Z,99628.69
2019-03-11T05:00:50.617Z,99628.69
2019-03-11T05:01:21.855Z,99628.69
2019-03-11T05:01:53.140Z,99633.45
2019-03-11T05:02:24.377Z,99639.53
2019-03-11T05:02:55.637Z,99634.34
2019-03-11T05:03:26.929Z,99645.13
2019-03-11T05:03:58.125Z,99643.35
2019-03-11T05:04:29.301Z,99643.83
2019-03-11T05:05:00.516Z,99647.30
2019-03-11T05:05:31.704Z,99644.30
2019-03-11T05:06:02.868Z,99649.55
2019-03-11T05:06:34.058Z,99653.03
2019-03-11T05:07:05.222Z,99643.08
2019-03-11T05:07:36.454Z,99669.03
2019-03-11T05:08:08.883Z,99647.88
2019-03-11T05:08:40.120Z,99650.95
2019-03-11T05:09:11.369Z,99652.19
2019-03-11T05:09:42.523Z,99654.36
2019-03-11T05:10:16.196Z,99652.25
2019-03-11T05:10:46.821Z,99662.62
2019-03-11T05:11:18.028Z,99662.14
2019-03-11T05:11:49.201Z,99659.14
2019-03-11T05:12:20.417Z,99661.66
2019-03-11T05:12:51.574Z,99655.66
2019-03-11T05:13:22.798Z,99660.81
2019-03-11T05:13:53.985Z,99659.08
2019-03-11T05:14:25.188Z,99661.22
2019-03-11T05:14:56.354Z,99659.52
2019-03-11T05:15:27.532Z,99663.81
2019-03-11T05:15:58.722Z,99664.26
2019-03-11T05:16:29.923Z,99659.92
2019-03-11T05:17:01.155Z,99668.14
2019-03-11T05:17:32.391Z,99662.96
2019-03-11T05:18:03.641Z,99666.81
2019-03-11T05:18:34.817Z,99661.16
2019-03-11T05:19:06.015Z,99659.38
2019-03-11T05:19:37.203Z,99661.97
2019-03-11T05:20:13.255Z,99665.45
2019-03-11T05:20:44.495Z,99667.16
2019-03-11T05:21:15.730Z,99664.98
2019-03-11T05:21:46.924Z,99669.75
2019-03-11T05:22:18.116Z,99677.12
2019-03-11T05:22:49.303Z,99665.83
2019-03-11T05:23:20.493Z,99669.27
2019-03-11T05:23:51.696Z,99672.75
2019-03-11T05:24:22.887Z,99672.30
2019-03-11T05:24:54.089Z,99660.16
2019-03-11T05:25:25.273Z,99670.53
2019-03-11T05:25:56.460Z,99670.12
2019-03-11T05:26:27.664Z,99673.60
2019-03-11T05:26:58.839Z,99671.02
2019-03-11T05:27:30.075Z,99672.23
2019-03-11T05:28:01.260Z,99673.13
2019-03-11T05:28:32.465Z,99668.77
2019-03-11T05:29:03.663Z,99673.94
2019-03-11T05:29:34.830Z,99679.61
2019-03-11T05:30:19.332Z,99680.08
2019-03-11T05:30:50.509Z,99675.72
2019-03-11T05:31:21.754Z,99674.42
2019-03-11T05:31:52.920Z,99673.13
2019-03-11T05:32:24.140Z,99669.23
2019-03-11T05:32:55.309Z,99671.83
2019-03-11T05:33:26.559Z,99673.13
2019-03-11T05:33:57.796Z,99682.67
2019-03-11T05:34:30.122Z,99667.94
2019-03-11T05:35:01.263Z,99677.05
2019-03-11T05:35:32.503Z,99690.45
2019-03-11T05:36:03.648Z,99690.45
2019-03-11T05:36:34.855Z,99674.90
2019-03-11T05:37:06.020Z,99673.13
2019-03-11T05:37:37.217Z,99675.23
2019-03-11T05:38:09.361Z,99672.65
2019-03-11T05:38:40.569Z,99678.31
2019-03-11T05:39:11.754Z,99672.72
2019-03-11T05:39:42.929Z,99678.78
2019-03-11T05:40:18.851Z,99693.05
2019-03-11T05:40:50.997Z,99680.49
2019-03-11T05:41:22.197Z,99677.02
2019-03-11T05:41:53.351Z,99681.37
2019-03-11T05:42:24.659Z,99680.08
2019-03-11T05:42:55.812Z,99680.94
2019-03-11T05:43:27.044Z,99677.48
2019-03-11T05:43:58.195Z,99689.16
2019-03-11T05:44:29.385Z,99699.08
2019-03-11T05:45:00.605Z,99676.64
2019-03-11T05:45:31.804Z,99684.01
2019-03-11T05:46:02.957Z,99690.48
2019-03-11T05:46:34.154Z,99678.41
2019-03-11T05:47:05.303Z,99688.37
2019-03-11T05:47:36.825Z,99683.19
2019-03-11T05:48:07.978Z,99687.89
2019-03-11T05:48:39.201Z,99683.97
2019-03-11T05:49:10.336Z,99687.01
2019-03-11T05:49:42.532Z,99691.78
2019-03-11T05:50:14.982Z,99682.67
2019-03-11T05:50:46.215Z,99687.01
2019-03-11T05:51:17.370Z,99694.78
2019-03-11T05:51:48.620Z,99683.59
2019-03-11T05:52:19.778Z,99687.48
2019-03-11T05:52:51.012Z,99687.89
2019-03-11T05:53:22.165Z,99687.48
2019-03-11T05:53:53.388Z,99697.85
2019-03-11T05:54:24.571Z,99690.48
2019-03-11T05:54:55.803Z,99689.19
2019-03-11T05:55:27.042Z,99694.45
2019-03-11T05:55:58.406Z,99695.67
2019-03-11T05:56:30.744Z,99690.48
2019-03-11T05:57:02.018Z,99690.48
2019-03-11T05:57:33.343Z,99691.78
2019-03-11T05:58:04.585Z,99695.27
2019-03-11T05:58:36.979Z,99689.19
2019-03-11T05:59:08.211Z,99700.52
2019-03-11T05:59:39.648Z,99700.99
2019-03-11T06:00:29.280Z,99703.92
2019-03-11T06:01:00.558Z,99698.67
2019-03-11T06:01:31.776Z,99698.27
2019-03-11T06:02:02.992Z,99698.27
2019-03-11T06:02:36.457Z,99703.52
2019-03-11T06:03:08.275Z,99702.29
2019-03-11T06:03:39.419Z,99711.36
2019-03-11T06:04:10.641Z,99710.92
2019-03-11T06:04:41.780Z,99710.92
2019-03-11T06:05:12.972Z,99712.66
2019-03-11T06:05:44.193Z,99706.59
2019-03-11T06:06:15.363Z,99710.06
2019-03-11T06:06:46.554Z,99710.98
2019-03-11T06:07:17.768Z,99705.39
2019-03-11T06:07:48.946Z,99714.09
2019-03-11T06:08:21.848Z,99711.09
2019-03-11T06:08:53.101Z,99709.39
2019-03-11T06:09:24.312Z,99712.45
2019-03-11T06:09:55.495Z,99714.23
2019-03-11T06:10:26.776Z,99718.13
2019-03-11T06:10:57.953Z,99710.82
2019-03-11T06:11:29.158Z,99710.82